createdAt,value
2022-12-18T00:00:55.071Z,14.25
2022-12-18T00:03:56.511Z,13.50
2022-12-18T00:06:57.886Z,13.73
2022-12-18T00:09:59.222Z,14.45
2022-12-18T00:13:03.813Z,13.17
2022-12-18T00:16:08.102Z,13.32
2022-12-18T00:19:09.397Z,14.23
2022-12-18T00:22:10.688Z,12.75
2022-12-18T00:25:11.970Z,13.85
2022-12-18T00:28:13.264Z,13.97
2022-12-18T00:31:14.641Z,12.25
2022-12-18T00:34:15.997Z,12.52
2022-12-18T00:37:20.291Z,12.35
2022-12-18T00:40:21.832Z,12.20
2022-12-18T00:43:23.138Z,12.87
2022-12-18T00:46:24.863Z,13.45
2022-12-18T00:49:26.157Z,13.15
2022-12-18T00:52:27.479Z,13.77
2022-12-18T00:55:28.756Z,13.65
2022-12-18T00:58:30.055Z,12.67
2022-12-18T01:01:31.469Z,13.60
2022-12-18T01:04:32.841Z,12.10
2022-12-18T01:07:34.126Z,12.55
2022-12-18T01:10:35.425Z,12.75
2022-12-18T01:13:37.076Z,12.20
2022-12-18T01:16:38.676Z,13.93
2022-12-18T01:19:40.022Z,13.55
2022-12-18T01:22:41.301Z,10.88
2022-12-18T01:25:42.593Z,11.60
2022-12-18T01:28:43.887Z,10.23
2022-12-18T01:31:45.254Z,11.82
2022-12-18T01:34:46.558Z,11.60
2022-12-18T01:37:47.852Z,10.85
2022-12-18T01:40:49.135Z,11.77
2022-12-18T01:43:50.452Z,11.63
2022-12-18T01:46:51.736Z,10.38
2022-12-18T01:49:52.994Z,10.02
2022-12-18T01:52:54.299Z,10.45
2022-12-18T01:55:55.571Z,10.52
2022-12-18T01:58:56.860Z,10.43
2022-12-18T02:01:58.301Z,9.85
2022-12-18T02:04:59.762Z,10.77
2022-12-18T02:08:01.051Z,10.25
2022-12-18T02:11:02.335Z,9.73
2022-12-18T02:14:03.618Z,10.30
2022-12-18T02:17:04.969Z,10.73
2022-12-18T02:20:06.302Z,9.75
2022-12-18T02:23:07.658Z,10.07
2022-12-18T02:26:08.928Z,11.27
2022-12-18T02:29:10.231Z,10.37
2022-12-18T02:32:11.521Z,10.13
2022-12-18T02:35:12.807Z,9.85
2022-12-18T02:38:14.106Z,9.25
2022-12-18T02:41:15.403Z,10.52
2022-12-18T02:44:16.673Z,9.70
2022-12-18T02:47:17.962Z,9.32
2022-12-18T02:50:19.268Z,9.95
2022-12-18T02:53:20.548Z,9.05
2022-12-18T02:56:21.826Z,9.13
2022-12-18T02:59:23.112Z,9.10
2022-12-18T03:02:24.545Z,9.57
2022-12-18T03:05:26.023Z,8.63
2022-12-18T03:08:27.313Z,9.73
2022-12-18T03:11:28.578Z,9.20
2022-12-18T03:14:29.875Z,9.67
2022-12-18T03:17:31.158Z,9.00
2022-12-18T03:20:32.447Z,9.30
2022-12-18T03:23:33.732Z,9.25
2022-12-18T03:26:35.023Z,8.68
2022-12-18T03:29:36.317Z,8.90
2022-12-18T03:32:37.581Z,8.85
2022-12-18T03:35:38.888Z,8.73
2022-12-18T03:38:40.182Z,7.85
2022-12-18T03:41:41.488Z,8.38
2022-12-18T03:44:42.764Z,8.77
2022-12-18T03:47:44.053Z,9.68
2022-12-18T03:50:45.327Z,8.43
2022-12-18T03:53:46.641Z,9.55
2022-12-18T03:56:47.934Z,8.52
2022-12-18T03:59:49.235Z,8.13
2022-12-18T04:02:50.555Z,8.30
2022-12-18T04:05:51.841Z,7.97
2022-12-18T04:08:53.135Z,8.27
2022-12-18T04:11:54.420Z,8.35
2022-12-18T04:14:55.715Z,8.43
2022-12-18T04:17:57.005Z,8.90
2022-12-18T04:20:58.294Z,8.57
2022-12-18T04:23:59.579Z,8.35
2022-12-18T04:27:00.874Z,9.05
2022-12-18T04:30:02.180Z,7.90
2022-12-18T04:33:03.486Z,8.90
2022-12-18T04:36:04.780Z,8.85
2022-12-18T04:39:06.087Z,8.85
2022-12-18T04:42:07.364Z,8.18
2022-12-18T04:45:08.660Z,8.70
2022-12-18T04:48:09.956Z,7.80
2022-12-18T04:51:11.739Z,7.45
2022-12-18T04:54:13.018Z,8.80
2022-12-18T04:57:14.288Z,8.13
2022-12-18T05:00:15.588Z,7.10
2022-12-18T05:03:16.925Z,8.40
2022-12-18T05:06:18.259Z,8.57
2022-12-18T05:09:19.569Z,8.73
2022-12-18T05:12:20.867Z,7.82
2022-12-18T05:15:22.150Z,7.40
2022-12-18T05:18:23.436Z,7.35
2022-12-18T05:21:24.738Z,8.80
2022-12-18T05:24:26.030Z,9.18
2022-12-18T05:27:27.327Z,7.35
2022-12-18T05:30:28.639Z,8.30
2022-12-18T05:33:29.926Z,8.45
2022-12-18T05:36:31.214Z,7.50
2022-12-18T05:39:32.488Z,9.23
2022-12-18T05:42:33.797Z,9.13
2022-12-18T05:45:35.103Z,8.67
2022-12-18T05:48:36.431Z,8.65
2022-12-18T05:51:37.729Z,9.07
2022-12-18T05:54:39.020Z,9.02
2022-12-18T05:57:40.343Z,7.82
2022-12-18T06:00:41.649Z,7.67
2022-12-18T06:03:43.326Z,7.68
2022-12-18T06:06:44.883Z,8.65
2022-12-18T06:09:46.171Z,8.30
2022-12-18T06:12:47.491Z,7.85
2022-12-18T06:15:48.928Z,9.73
2022-12-18T06:18:50.236Z,8.48
2022-12-18T06:21:51.664Z,9.32
2022-12-18T06:24:52.953Z,8.88
2022-12-18T06:27:54.278Z,9.32
2022-12-18T06:30:55.573Z,8.47
2022-12-18T06:33:56.878Z,8.82
2022-12-18T06:36:58.164Z,8.55
2022-12-18T06:39:59.436Z,8.57
2022-12-18T06:43:00.749Z,8.30
2022-12-18T06:46:02.089Z,10.90
2022-12-18T06:49:03.415Z,9.55
2022-12-18T06:52:04.705Z,9.65
2022-12-18T06:55:06.006Z,10.00
2022-12-18T06:58:07.319Z,9.13
2022-12-18T07:01:09.501Z,7.97
2022-12-18T07:04:10.856Z,9.82
2022-12-18T07:07:12.131Z,9.55
2022-12-18T07:10:13.436Z,9.80
2022-12-18T07:13:14.732Z,10.05
2022-12-18T07:16:23.908Z,9.73
2022-12-18T07:19:26.354Z,10.32
2022-12-18T07:22:27.644Z,10.38
2022-12-18T07:25:28.948Z,10.20
2022-12-18T07:28:30.258Z,10.95
2022-12-18T07:31:31.600Z,9.97
2022-12-18T07:34:32.973Z,9.98
2022-12-18T07:37:34.274Z,10.65
2022-12-18T07:40:35.558Z,9.90
2022-12-18T07:43:37.009Z,10.02
2022-12-18T07:46:38.526Z,10.43
2022-12-18T07:49:39.824Z,11.38
2022-12-18T07:52:41.112Z,12.15
2022-12-18T07:56:17.868Z,9.88
2022-12-18T07:59:03.669Z,9.82
2022-12-18T08:02:05.152Z,10.00
2022-12-18T08:05:08.232Z,9.32
2022-12-18T08:08:09.504Z,8.38
2022-12-18T08:11:10.804Z,9.45
2022-12-18T08:14:12.089Z,9.68
2022-12-18T08:17:13.472Z,9.47
2022-12-18T08:20:14.744Z,9.20
2022-12-18T08:23:16.083Z,9.15
2022-12-18T08:26:17.396Z,8.93
2022-12-18T08:29:21.682Z,9.13
2022-12-18T08:32:23.168Z,8.03
2022-12-18T08:35:24.472Z,9.98
2022-12-18T08:38:25.791Z,10.00
2022-12-18T08:41:27.119Z,8.77
2022-12-18T08:44:28.399Z,9.88
2022-12-18T08:47:29.702Z,8.90
2022-12-18T08:50:30.970Z,8.65
2022-12-18T08:53:35.620Z,8.93
2022-12-18T08:56:37.251Z,8.55
2022-12-18T08:59:38.545Z,8.30
2022-12-18T09:02:39.972Z,8.37
2022-12-18T09:05:41.363Z,9.50
2022-12-18T09:08:42.922Z,8.20
2022-12-18T09:11:44.501Z,8.95
2022-12-18T09:14:45.788Z,9.07
2022-12-18T09:17:47.091Z,9.10
2022-12-18T09:20:48.885Z,9.68
2022-12-18T09:23:50.211Z,8.80
2022-12-18T09:26:54.813Z,9.25
2022-12-18T09:29:58.846Z,9.00
2022-12-18T09:33:00.152Z,9.70
2022-12-18T09:36:01.616Z,8.55
2022-12-18T09:39:07.841Z,10.52
2022-12-18T09:42:09.716Z,9.65
2022-12-18T09:45:11.033Z,9.00
2022-12-18T09:48:12.323Z,8.17
2022-12-18T09:51:13.617Z,8.85
2022-12-18T09:54:14.928Z,9.35
2022-12-18T09:57:16.236Z,9.88
2022-12-18T10:00:17.531Z,8.43
2022-12-18T10:03:18.845Z,10.20
2022-12-18T10:06:20.134Z,8.52
2022-12-18T10:09:21.423Z,9.35
2022-12-18T10:12:22.735Z,9.75
2022-12-18T10:15:24.036Z,8.35
2022-12-18T10:18:25.345Z,9.17
2022-12-18T10:21:26.631Z,8.82
2022-12-18T10:24:27.937Z,8.73
2022-12-18T10:27:29.226Z,8.75
2022-12-18T10:30:30.544Z,9.50
2022-12-18T10:33:31.842Z,8.20
2022-12-18T10:36:33.148Z,8.60
2022-12-18T10:39:34.410Z,9.20
2022-12-18T10:42:37.000Z,8.02
2022-12-18T10:45:38.315Z,8.10
2022-12-18T10:48:39.946Z,7.70
2022-12-18T10:51:41.604Z,7.93
2022-12-18T10:54:42.900Z,8.75
2022-12-18T10:57:44.201Z,8.48
2022-12-18T11:00:45.490Z,8.07
2022-12-18T11:03:46.860Z,7.83
2022-12-18T11:06:48.156Z,7.40
2022-12-18T11:09:49.464Z,7.57
2022-12-18T11:12:50.746Z,8.32
2022-12-18T11:15:52.078Z,8.85
2022-12-18T11:18:53.412Z,7.87
2022-12-18T11:21:54.701Z,8.82
2022-12-18T11:25:29.630Z,7.38
2022-12-18T11:28:17.324Z,8.93
2022-12-18T11:31:18.707Z,7.82
2022-12-18T11:34:29.156Z,7.53
2022-12-18T11:37:30.972Z,7.63
2022-12-18T11:40:36.541Z,8.23
2022-12-18T11:43:42.117Z,7.45
2022-12-18T11:46:43.524Z,7.50
2022-12-18T11:49:44.872Z,7.37
2022-12-18T11:52:46.149Z,7.38
2022-12-18T11:55:47.445Z,7.78
2022-12-18T11:58:48.738Z,7.10
2022-12-18T12:01:50.127Z,7.75
2022-12-18T12:04:51.496Z,7.80
2022-12-18T12:07:52.778Z,8.55
2022-12-18T12:10:54.089Z,7.32
2022-12-18T12:13:55.383Z,7.57
2022-12-18T12:16:56.672Z,6.53
2022-12-18T12:19:57.984Z,8.63
2022-12-18T12:22:59.283Z,7.97
2022-12-18T12:26:00.595Z,8.10
2022-12-18T12:29:01.887Z,7.00
2022-12-18T12:32:03.683Z,7.28
2022-12-18T12:35:09.603Z,7.00
2022-12-18T12:38:11.353Z,7.20
2022-12-18T12:41:12.676Z,8.05
2022-12-18T12:44:13.982Z,8.07
2022-12-18T12:47:15.266Z,7.22
2022-12-18T12:50:18.228Z,7.67
2022-12-18T12:53:19.531Z,8.20
2022-12-18T12:56:20.883Z,6.65
2022-12-18T12:59:22.200Z,7.53
2022-12-18T13:02:23.573Z,6.90
2022-12-18T13:05:25.550Z,7.63
2022-12-18T13:08:28.052Z,7.32
2022-12-18T13:11:32.467Z,7.10
2022-12-18T13:14:33.876Z,6.95
2022-12-18T13:17:35.191Z,7.10
2022-12-18T13:20:36.504Z,7.73
2022-12-18T13:23:37.875Z,8.02
2022-12-18T13:26:39.214Z,6.78
2022-12-18T13:29:40.714Z,8.27
2022-12-18T13:32:42.023Z,8.13
2022-12-18T13:35:43.336Z,7.60
2022-12-18T13:38:44.771Z,6.50
2022-12-18T13:41:46.626Z,7.60
2022-12-18T13:44:47.916Z,7.03
2022-12-18T13:47:49.460Z,6.53
2022-12-18T13:50:50.782Z,7.10
2022-12-18T13:53:52.310Z,6.82
2022-12-18T13:56:53.635Z,6.68
2022-12-18T13:59:54.942Z,7.20
2022-12-18T14:02:56.323Z,7.20
2022-12-18T14:05:57.974Z,7.27
2022-12-18T14:09:00.690Z,6.63
2022-12-18T14:12:02.237Z,6.53
2022-12-18T14:15:03.541Z,6.45
2022-12-18T14:18:04.830Z,7.80
2022-12-18T14:21:06.129Z,7.10
2022-12-18T14:24:07.780Z,7.13
2022-12-18T14:27:09.062Z,7.07
2022-12-18T14:30:10.372Z,7.28
2022-12-18T14:33:11.712Z,6.43
2022-12-18T14:36:13.064Z,6.47
2022-12-18T14:39:14.377Z,7.78
2022-12-18T14:42:15.842Z,7.57
2022-12-18T14:45:17.180Z,8.38
2022-12-18T14:48:23.034Z,6.55
2022-12-18T14:51:25.233Z,7.03
2022-12-18T14:54:26.533Z,6.43
2022-12-18T14:57:28.189Z,6.70
2022-12-18T15:00:29.543Z,6.90
2022-12-18T15:03:30.941Z,6.30
2022-12-18T15:06:32.767Z,7.60
2022-12-18T15:09:34.490Z,7.13
2022-12-18T15:12:36.032Z,7.57
2022-12-18T15:15:37.725Z,6.63
2022-12-18T15:18:39.616Z,7.75
2022-12-18T15:21:41.833Z,7.37
2022-12-18T15:24:43.186Z,7.25
2022-12-18T15:27:45.008Z,7.53
2022-12-18T15:30:46.762Z,7.85
2022-12-18T15:33:48.151Z,7.60
2022-12-18T15:36:50.299Z,8.53
2022-12-18T15:39:52.031Z,9.38
2022-12-18T15:42:53.549Z,7.97
2022-12-18T15:45:55.386Z,9.82
2022-12-18T15:49:01.691Z,10.68
2022-12-18T15:52:04.613Z,10.70
2022-12-18T15:55:06.395Z,12.43
2022-12-18T15:58:08.223Z,11.40
2022-12-18T16:01:10.029Z,12.27
2022-12-18T16:04:11.477Z,14.30
2022-12-18T16:07:16.075Z,14.17
2022-12-18T16:10:19.525Z,13.88
2022-12-18T16:13:21.202Z,14.35
2022-12-18T16:16:22.997Z,14.55
2022-12-18T16:19:25.980Z,15.15
2022-12-18T16:22:28.194Z,16.27
2022-12-18T16:25:30.034Z,15.63
2022-12-18T16:28:31.914Z,17.20
2022-12-18T16:31:33.689Z,18.90
2022-12-18T16:34:36.173Z,18.50
2022-12-18T16:37:38.168Z,20.30
2022-12-18T16:40:39.585Z,21.25
2022-12-18T16:43:42.573Z,21.95
2022-12-18T16:46:44.265Z,23.65
2022-12-18T16:49:46.148Z,28.05
2022-12-18T16:52:48.021Z,26.43
2022-12-18T16:55:49.729Z,29.52
2022-12-18T16:58:51.686Z,31.48
2022-12-18T17:01:53.963Z,31.05
2022-12-18T17:04:55.807Z,32.50
2022-12-18T17:07:57.640Z,35.20
2022-12-18T17:10:59.430Z,32.30
2022-12-18T17:14:01.276Z,30.45
2022-12-18T17:17:21.745Z,32.33
2022-12-18T17:20:25.323Z,33.67
2022-12-18T17:23:27.266Z,30.63
2022-12-18T17:26:29.139Z,32.45
2022-12-18T17:29:30.985Z,33.42
2022-12-18T17:32:32.575Z,31.02
2022-12-18T17:35:34.260Z,33.40
2022-12-18T17:38:36.135Z,31.93
2022-12-18T17:41:37.950Z,35.53
2022-12-18T17:44:39.791Z,36.75
2022-12-18T17:47:41.516Z,35.92
2022-12-18T17:50:42.832Z,35.15
2022-12-18T17:53:44.890Z,36.90
2022-12-18T17:56:46.890Z,37.00
2022-12-18T17:59:48.697Z,40.10
2022-12-18T18:02:50.714Z,38.38
2022-12-18T18:05:52.730Z,42.50
2022-12-18T18:08:54.341Z,43.93
2022-12-18T18:11:56.387Z,41.42
2022-12-18T18:14:58.242Z,42.25
2022-12-18T18:18:00.261Z,43.92
2022-12-18T18:21:02.148Z,44.80
2022-12-18T18:24:04.243Z,45.10
2022-12-18T18:27:06.081Z,42.78
2022-12-18T18:30:07.588Z,42.80
2022-12-18T18:33:12.062Z,45.17
2022-12-18T18:36:13.652Z,43.10
2022-12-18T18:39:15.679Z,48.70
2022-12-18T18:42:17.402Z,43.95
2022-12-18T18:45:19.221Z,46.20
2022-12-18T18:48:20.621Z,50.90
2022-12-18T18:51:21.991Z,46.92
2022-12-18T18:54:23.550Z,44.53
2022-12-18T18:57:29.966Z,45.80
2022-12-18T19:00:32.247Z,45.45
2022-12-18T19:03:34.282Z,45.17
2022-12-18T19:06:36.075Z,44.05
2022-12-18T19:09:37.922Z,44.57
2022-12-18T19:12:39.618Z,45.53
2022-12-18T19:15:42.209Z,48.58
2022-12-18T19:18:44.515Z,45.45
2022-12-18T19:21:47.464Z,52.45
2022-12-18T19:24:49.205Z,50.33
2022-12-18T19:27:50.595Z,54.83
2022-12-18T19:30:53.589Z,54.92
2022-12-18T19:34:02.788Z,56.80
2022-12-18T19:37:04.388Z,53.30
2022-12-18T19:40:12.595Z,55.57
2022-12-18T19:43:15.179Z,56.60
2022-12-18T19:46:17.933Z,54.90
2022-12-18T19:49:19.935Z,51.17
2022-12-18T19:52:21.697Z,54.83
2022-12-18T19:55:23.402Z,54.67
2022-12-18T19:58:25.043Z,53.72
2022-12-18T20:01:26.809Z,56.00
2022-12-18T20:04:28.407Z,57.10
2022-12-18T20:07:30.341Z,53.22
2022-12-18T20:10:32.046Z,52.97
2022-12-18T20:13:33.560Z,53.17
2022-12-18T20:16:35.385Z,53.20
2022-12-18T20:19:37.554Z,52.00
2022-12-18T20:22:39.745Z,55.45
2022-12-18T20:25:41.468Z,51.83
2022-12-18T20:28:43.016Z,53.38
2022-12-18T20:31:44.670Z,54.95
2022-12-18T20:34:46.202Z,54.05
2022-12-18T20:37:49.846Z,54.10
2022-12-18T20:40:52.360Z,55.10
2022-12-18T20:43:54.142Z,52.33
2022-12-18T20:46:55.923Z,51.25
2022-12-18T20:49:57.709Z,53.53
2022-12-18T20:52:59.091Z,49.45
2022-12-18T20:56:00.435Z,52.87
2022-12-18T20:59:02.112Z,50.85
2022-12-18T21:02:03.688Z,54.38
2022-12-18T21:05:05.140Z,52.63
2022-12-18T21:08:06.757Z,53.63
2022-12-18T21:11:08.509Z,54.00
2022-12-18T21:14:09.992Z,57.33
2022-12-18T21:17:11.397Z,53.42
2022-12-18T21:20:17.452Z,53.65
2022-12-18T21:23:19.551Z,52.22
2022-12-18T21:26:20.958Z,50.67
2022-12-18T21:29:22.465Z,52.03
2022-12-18T21:32:24.722Z,51.78
2022-12-18T21:35:32.140Z,52.88
2022-12-18T21:38:33.557Z,50.58
2022-12-18T21:41:41.703Z,53.40
2022-12-18T21:44:43.518Z,52.38
2022-12-18T21:47:44.825Z,51.13
2022-12-18T21:50:46.117Z,51.45
2022-12-18T21:53:47.427Z,50.90
2022-12-18T21:56:50.478Z,49.33
2022-12-18T21:59:51.768Z,51.58
2022-12-18T22:03:17.723Z,51.60
2022-12-18T22:06:14.342Z,48.28
2022-12-18T22:09:15.686Z,47.28
2022-12-18T22:12:16.978Z,45.10
2022-12-18T22:15:21.775Z,47.65
2022-12-18T22:18:23.415Z,48.20
2022-12-18T22:21:29.097Z,49.28
2022-12-18T22:24:30.979Z,42.20
2022-12-18T22:27:32.286Z,47.20
2022-12-18T22:30:33.584Z,45.00
2022-12-18T22:33:35.030Z,45.33
2022-12-18T22:36:36.332Z,42.25
2022-12-18T22:39:37.638Z,43.38
2022-12-18T22:42:39.236Z,43.43
2022-12-18T22:45:40.516Z,42.55
2022-12-18T22:48:42.048Z,43.38
2022-12-18T22:51:43.352Z,42.65
2022-12-18T22:54:44.641Z,43.45
2022-12-18T22:57:49.174Z,44.70
2022-12-18T23:00:50.618Z,43.63
2022-12-18T23:03:51.945Z,40.47
2022-12-18T23:06:53.257Z,41.70
2022-12-18T23:10:00.807Z,42.38
2022-12-18T23:13:02.562Z,41.13
2022-12-18T23:16:03.934Z,40.65
2022-12-18T23:19:05.341Z,41.25
2022-12-18T23:22:11.519Z,39.00
2022-12-18T23:25:13.133Z,43.70
2022-12-18T23:28:14.428Z,41.17
2022-12-18T23:31:15.789Z,39.28
2022-12-18T23:34:18.298Z,42.22
2022-12-18T23:37:49.867Z,38.10
2022-12-18T23:40:40.894Z,37.85
2022-12-18T23:43:42.176Z,34.87
2022-12-18T23:46:45.501Z,36.83
2022-12-18T23:49:46.879Z,34.30
2022-12-18T23:52:48.431Z,33.92
2022-12-18T23:55:49.722Z,34.58
2022-12-18T23:58:52.944Z,33.97
